sensor_id;sensor_type;location;lat;lon;timestamp;temperature;humidity
11840;DHT22;5979;50.800;4.904;2022-10-31T00:01:58;14.00;99.90
11840;DHT22;5979;50.800;4.904;2022-10-31T00:04:24;14.00;99.90
11840;DHT22;5979;50.800;4.904;2022-10-31T00:06:49;14.10;99.90
11840;DHT22;5979;50.800;4.904;2022-10-31T00:09:15;14.10;99.90
11840;DHT22;5979;50.800;4.904;2022-10-31T00:11:41;14.10;99.90
11840;DHT22;5979;50.800;4.904;2022-10-31T00:14:06;14.20;99.90
11840;DHT22;5979;50.800;4.904;2022-10-31T00:16:32;14.10;99.90
11840;DHT22;5979;50.800;4.904;2022-10-31T00:18:59;14.10;99.90
11840;DHT22;5979;50.800;4.904;2022-10-31T00:21:26;14.00;99.90
11840;DHT22;5979;50.800;4.904;2022-10-31T00:23:52;14.00;99.90
11840;DHT22;5979;50.800;4.904;2022-10-31T00:26:18;14.00;99.90
11840;DHT22;5979;50.800;4.904;2022-10-31T00:28:44;14.00;99.90
11840;DHT22;5979;50.800;4.904;2022-10-31T00:31:11;14.00;99.90
11840;DHT22;5979;50.800;4.904;2022-10-31T00:33:38;14.00;99.90
11840;DHT22;5979;50.800;4.904;2022-10-31T00:36:06;14.00;99.90
11840;DHT22;5979;50.800;4.904;2022-10-31T00:38:32;14.00;99.90
11840;DHT22;5979;50.800;4.904;2022-10-31T00:40:58;14.00;99.90
11840;DHT22;5979;50.800;4.904;2022-10-31T00:43:23;14.00;99.90
11840;DHT22;5979;50.800;4.904;2022-10-31T00:45:49;14.00;99.90
11840;DHT22;5979;50.800;4.904;2022-10-31T00:48:15;14.10;99.90
11840;DHT22;5979;50.800;4.904;2022-10-31T00:50:40;14.00;99.90
11840;DHT22;5979;50.800;4.904;2022-10-31T00:53:06;14.00;99.90
11840;DHT22;5979;50.800;4.904;2022-10-31T00:55:32;14.00;99.90
11840;DHT22;5979;50.800;4.904;2022-10-31T00:57:58;14.00;99.90
11840;DHT22;5979;50.800;4.904;2022-10-31T01:00:24;14.00;99.90
11840;DHT22;5979;50.800;4.904;2022-10-31T01:02:49;13.90;99.90
11840;DHT22;5979;50.800;4.904;2022-10-31T01:05:15;13.90;99.90
11840;DHT22;5979;50.800;4.904;2022-10-31T01:07:41;13.80;99.90
11840;DHT22;5979;50.800;4.904;2022-10-31T01:10:08;13.80;99.90
11840;DHT22;5979;50.800;4.904;2022-10-31T01:12:45;13.80;99.90
11840;DHT22;5979;50.800;4.904;2022-10-31T01:15:13;13.80;99.90
11840;DHT22;5979;50.800;4.904;2022-10-31T01:17:39;13.70;99.90
11840;DHT22;5979;50.800;4.904;2022-10-31T01:20:06;13.70;99.90
11840;DHT22;5979;50.800;4.904;2022-10-31T01:22:32;13.70;99.90
11840;DHT22;5979;50.800;4.904;2022-10-31T01:24:58;13.60;99.90
11840;DHT22;5979;50.800;4.904;2022-10-31T01:27:24;13.60;99.90
11840;DHT22;5979;50.800;4.904;2022-10-31T01:29:49;13.60;99.90
11840;DHT22;5979;50.800;4.904;2022-10-31T01:32:15;13.60;99.90
11840;DHT22;5979;50.800;4.904;2022-10-31T01:34:40;13.50;99.90
11840;DHT22;5979;50.800;4.904;2022-10-31T01:37:06;13.50;99.90
11840;DHT22;5979;50.800;4.904;2022-10-31T01:39:32;13.40;99.90
11840;DHT22;5979;50.800;4.904;2022-10-31T01:41:57;13.40;99.90
11840;DHT22;5979;50.800;4.904;2022-10-31T01:52:13;13.30;99.90
11840;DHT22;5979;50.800;4.904;2022-10-31T01:54:44;13.30;99.90
11840;DHT22;5979;50.800;4.904;2022-10-31T01:57:12;13.40;99.90
11840;DHT22;5979;50.800;4.904;2022-10-31T01:59:44;13.40;99.90
11840;DHT22;5979;50.800;4.904;2022-10-31T02:02:12;13.30;99.90
11840;DHT22;5979;50.800;4.904;2022-10-31T02:04:39;13.30;99.90
11840;DHT22;5979;50.800;4.904;2022-10-31T02:07:12;13.30;99.90
11840;DHT22;5979;50.800;4.904;2022-10-31T02:09:39;13.30;99.90
11840;DHT22;5979;50.800;4.904;2022-10-31T02:12:06;13.30;99.90
11840;DHT22;5979;50.800;4.904;2022-10-31T02:14:34;13.30;99.90
11840;DHT22;5979;50.800;4.904;2022-10-31T02:17:00;13.30;99.90
11840;DHT22;5979;50.800;4.904;2022-10-31T02:19:51;13.20;99.90
11840;DHT22;5979;50.800;4.904;2022-10-31T02:30:18;13.20;99.90
11840;DHT22;5979;50.800;4.904;2022-10-31T02:51:52;12.80;99.90
11840;DHT22;5979;50.800;4.904;2022-10-31T02:54:28;12.80;99.90
11840;DHT22;5979;50.800;4.904;2022-10-31T02:56:58;12.70;99.90
11840;DHT22;5979;50.800;4.904;2022-10-31T02:59:26;12.70;99.90
11840;DHT22;5979;50.800;4.904;2022-10-31T03:04:40;12.60;99.90
11840;DHT22;5979;50.800;4.904;2022-10-31T03:12:35;12.60;99.90
11840;DHT22;5979;50.800;4.904;2022-10-31T03:15:22;12.50;99.90
11840;DHT22;5979;50.800;4.904;2022-10-31T03:18:16;12.50;99.90
11840;DHT22;5979;50.800;4.904;2022-10-31T03:20:52;12.50;99.90
11840;DHT22;5979;50.800;4.904;2022-10-31T03:23:22;12.50;99.90
11840;DHT22;5979;50.800;4.904;2022-10-31T03:25:50;12.50;99.90
11840;DHT22;5979;50.800;4.904;2022-10-31T03:28:24;12.60;99.90
11840;DHT22;5979;50.800;4.904;2022-10-31T03:30:52;12.60;99.90
11840;DHT22;5979;50.800;4.904;2022-10-31T03:33:24;12.60;99.90
11840;DHT22;5979;50.800;4.904;2022-10-31T03:35:52;12.70;99.90
11840;DHT22;5979;50.800;4.904;2022-10-31T03:38:20;12.60;99.90
11840;DHT22;5979;50.800;4.904;2022-10-31T03:40:48;12.60;99.90
11840;DHT22;5979;50.800;4.904;2022-10-31T03:43:26;12.60;99.90
11840;DHT22;5979;50.800;4.904;2022-10-31T03:45:54;12.60;99.90
11840;DHT22;5979;50.800;4.904;2022-10-31T03:48:20;12.60;99.90
11840;DHT22;5979;50.800;4.904;2022-10-31T03:51:13;12.60;99.90
11840;DHT22;5979;50.800;4.904;2022-10-31T03:53:55;12.60;99.90
11840;DHT22;5979;50.800;4.904;2022-10-31T03:56:37;12.70;99.90
11840;DHT22;5979;50.800;4.904;2022-10-31T03:59:10;12.60;99.90
11840;DHT22;5979;50.800;4.904;2022-10-31T04:01:46;12.60;99.90
11840;DHT22;5979;50.800;4.904;2022-10-31T04:04:13;12.50;99.90
11840;DHT22;5979;50.800;4.904;2022-10-31T04:06:40;12.50;99.90
11840;DHT22;5979;50.800;4.904;2022-10-31T04:09:08;12.40;99.90
11840;DHT22;5979;50.800;4.904;2022-10-31T04:11:38;12.40;99.90
11840;DHT22;5979;50.800;4.904;2022-10-31T04:14:06;12.30;99.90
11840;DHT22;5979;50.800;4.904;2022-10-31T04:16:33;12.30;99.90
11840;DHT22;5979;50.800;4.904;2022-10-31T04:18:59;12.20;99.90
11840;DHT22;5979;50.800;4.904;2022-10-31T04:21:29;12.20;99.90
11840;DHT22;5979;50.800;4.904;2022-10-31T04:23:55;12.10;99.90
11840;DHT22;5979;50.800;4.904;2022-10-31T04:26:20;12.10;99.90
11840;DHT22;5979;50.800;4.904;2022-10-31T04:28:46;12.10;99.90
11840;DHT22;5979;50.800;4.904;2022-10-31T04:31:12;12.00;99.90
11840;DHT22;5979;50.800;4.904;2022-10-31T04:33:38;12.00;99.90
11840;DHT22;5979;50.800;4.904;2022-10-31T04:36:04;11.90;99.90
11840;DHT22;5979;50.800;4.904;2022-10-31T04:38:33;11.90;99.90
11840;DHT22;5979;50.800;4.904;2022-10-31T04:40:58;11.80;99.90
11840;DHT22;5979;50.800;4.904;2022-10-31T04:43:24;11.80;99.90
11840;DHT22;5979;50.800;4.904;2022-10-31T04:45:50;11.90;99.90
11840;DHT22;5979;50.800;4.904;2022-10-31T04:48:15;11.80;99.90
11840;DHT22;5979;50.800;4.904;2022-10-31T04:50:41;11.80;99.90
11840;DHT22;5979;50.800;4.904;2022-10-31T04:53:07;11.80;99.90
11840;DHT22;5979;50.800;4.904;2022-10-31T04:55:32;11.80;99.90
11840;DHT22;5979;50.800;4.904;2022-10-31T04:57:58;11.70;99.90
11840;DHT22;5979;50.800;4.904;2022-10-31T05:00:24;11.70;99.90
11840;DHT22;5979;50.800;4.904;2022-10-31T05:02:55;11.70;99.90
11840;DHT22;5979;50.800;4.904;2022-10-31T05:05:23;11.70;99.90
11840;DHT22;5979;50.800;4.904;2022-10-31T05:07:50;11.70;99.90
11840;DHT22;5979;50.800;4.904;2022-10-31T05:10:19;11.70;99.90
11840;DHT22;5979;50.800;4.904;2022-10-31T05:12:52;11.70;99.90
11840;DHT22;5979;50.800;4.904;2022-10-31T05:15:20;11.70;99.90
11840;DHT22;5979;50.800;4.904;2022-10-31T05:17:46;11.70;99.90
11840;DHT22;5979;50.800;4.904;2022-10-31T05:20:13;11.70;99.90
11840;DHT22;5979;50.800;4.904;2022-10-31T05:22:48;11.70;99.90
11840;DHT22;5979;50.800;4.904;2022-10-31T05:25:14;11.80;99.90
11840;DHT22;5979;50.800;4.904;2022-10-31T05:27:41;11.80;99.90
11840;DHT22;5979;50.800;4.904;2022-10-31T05:30:08;11.80;99.90
11840;DHT22;5979;50.800;4.904;2022-10-31T05:32:41;11.80;99.90
11840;DHT22;5979;50.800;4.904;2022-10-31T05:35:08;11.80;99.90
11840;DHT22;5979;50.800;4.904;2022-10-31T05:37:35;11.80;99.90
11840;DHT22;5979;50.800;4.904;2022-10-31T05:40:06;11.80;99.90
11840;DHT22;5979;50.800;4.904;2022-10-31T05:42:32;11.80;99.90
11840;DHT22;5979;50.800;4.904;2022-10-31T05:44:58;11.80;99.90
11840;DHT22;5979;50.800;4.904;2022-10-31T05:47:24;11.80;99.90
11840;DHT22;5979;50.800;4.904;2022-10-31T05:49:50;11.80;99.90
11840;DHT22;5979;50.800;4.904;2022-10-31T05:52:16;11.80;99.90
11840;DHT22;5979;50.800;4.904;2022-10-31T05:54:42;11.80;99.90
11840;DHT22;5979;50.800;4.904;2022-10-31T05:57:08;11.80;99.90
11840;DHT22;5979;50.800;4.904;2022-10-31T05:59:33;11.80;99.90
11840;DHT22;5979;50.800;4.904;2022-10-31T06:01:59;11.80;99.90
11840;DHT22;5979;50.800;4.904;2022-10-31T06:04:25;11.70;99.90
11840;DHT22;5979;50.800;4.904;2022-10-31T06:06:50;11.80;99.90
11840;DHT22;5979;50.800;4.904;2022-10-31T06:09:16;11.70;99.90
11840;DHT22;5979;50.800;4.904;2022-10-31T06:11:42;11.70;99.90
11840;DHT22;5979;50.800;4.904;2022-10-31T06:14:07;11.70;99.90
11840;DHT22;5979;50.800;4.904;2022-10-31T06:16:33;11.80;99.90
11840;DHT22;5979;50.800;4.904;2022-10-31T06:18:59;11.80;99.90
11840;DHT22;5979;50.800;4.904;2022-10-31T06:21:24;11.80;99.90
11840;DHT22;5979;50.800;4.904;2022-10-31T06:23:50;11.80;99.90
11840;DHT22;5979;50.800;4.904;2022-10-31T06:26:16;11.80;99.90
11840;DHT22;5979;50.800;4.904;2022-10-31T06:28:42;11.80;99.90
11840;DHT22;5979;50.800;4.904;2022-10-31T06:31:07;11.80;99.90
11840;DHT22;5979;50.800;4.904;2022-10-31T06:33:34;11.80;99.90
11840;DHT22;5979;50.800;4.904;2022-10-31T06:36:00;11.90;99.90
11840;DHT22;5979;50.800;4.904;2022-10-31T06:38:27;11.80;99.90
11840;DHT22;5979;50.800;4.904;2022-10-31T06:40:53;11.90;99.90
11840;DHT22;5979;50.800;4.904;2022-10-31T06:43:19;11.90;99.90
11840;DHT22;5979;50.800;4.904;2022-10-31T06:45:45;11.90;99.90
11840;DHT22;5979;50.800;4.904;2022-10-31T06:48:10;11.90;99.90
11840;DHT22;5979;50.800;4.904;2022-10-31T06:50:36;11.90;99.90
11840;DHT22;5979;50.800;4.904;2022-10-31T06:53:02;11.90;99.90
11840;DHT22;5979;50.800;4.904;2022-10-31T06:55:27;11.90;99.90
11840;DHT22;5979;50.800;4.904;2022-10-31T06:57:58;12.00;99.90
11840;DHT22;5979;50.800;4.904;2022-10-31T07:00:25;12.00;99.90
11840;DHT22;5979;50.800;4.904;2022-10-31T07:05:24;12.00;99.90
11840;DHT22;5979;50.800;4.904;2022-10-31T07:07:58;12.00;99.90
11840;DHT22;5979;50.800;4.904;2022-10-31T07:10:25;12.10;99.90
11840;DHT22;5979;50.800;4.904;2022-10-31T07:12:59;12.10;99.90
11840;DHT22;5979;50.800;4.904;2022-10-31T07:15:26;12.10;99.90
11840;DHT22;5979;50.800;4.904;2022-10-31T07:17:52;12.10;99.90
11840;DHT22;5979;50.800;4.904;2022-10-31T07:20:18;12.20;99.90
11840;DHT22;5979;50.800;4.904;2022-10-31T07:22:43;12.20;99.90
11840;DHT22;5979;50.800;4.904;2022-10-31T07:25:09;12.30;99.90
11840;DHT22;5979;50.800;4.904;2022-10-31T07:27:42;12.40;99.90
11840;DHT22;5979;50.800;4.904;2022-10-31T07:30:10;12.40;99.90
11840;DHT22;5979;50.800;4.904;2022-10-31T07:32:40;12.20;99.90
11840;DHT22;5979;50.800;4.904;2022-10-31T07:35:10;12.10;99.90
11840;DHT22;5979;50.800;4.904;2022-10-31T07:37:36;12.20;99.90
11840;DHT22;5979;50.800;4.904;2022-10-31T07:40:03;12.20;99.90
11840;DHT22;5979;50.800;4.904;2022-10-31T07:42:34;12.30;99.90
11840;DHT22;5979;50.800;4.904;2022-10-31T07:44:59;12.40;99.90
11840;DHT22;5979;50.800;4.904;2022-10-31T07:47:25;12.40;99.90
11840;DHT22;5979;50.800;4.904;2022-10-31T07:49:50;12.40;99.90
11840;DHT22;5979;50.800;4.904;2022-10-31T07:52:16;12.40;99.90
11840;DHT22;5979;50.800;4.904;2022-10-31T07:54:42;12.60;99.90
11840;DHT22;5979;50.800;4.904;2022-10-31T07:57:07;12.60;99.90
11840;DHT22;5979;50.800;4.904;2022-10-31T07:59:33;12.70;99.90
11840;DHT22;5979;50.800;4.904;2022-10-31T08:01:58;12.70;99.90
11840;DHT22;5979;50.800;4.904;2022-10-31T08:04:24;12.70;99.90
11840;DHT22;5979;50.800;4.904;2022-10-31T08:06:50;12.80;99.90
11840;DHT22;5979;50.800;4.904;2022-10-31T08:09:15;12.90;99.90
11840;DHT22;5979;50.800;4.904;2022-10-31T08:11:41;13.00;99.90
11840;DHT22;5979;50.800;4.904;2022-10-31T08:14:07;13.20;99.90
11840;DHT22;5979;50.800;4.904;2022-10-31T08:16:32;13.30;99.90
11840;DHT22;5979;50.800;4.904;2022-10-31T08:18:58;13.40;99.90
11840;DHT22;5979;50.800;4.904;2022-10-31T08:21:23;13.40;99.90
11840;DHT22;5979;50.800;4.904;2022-10-31T08:23:49;13.40;99.90
11840;DHT22;5979;50.800;4.904;2022-10-31T08:26:15;13.40;99.90
11840;DHT22;5979;50.800;4.904;2022-10-31T08:28:40;13.50;99.90
11840;DHT22;5979;50.800;4.904;2022-10-31T08:31:06;13.60;99.90
11840;DHT22;5979;50.800;4.904;2022-10-31T08:33:31;13.50;99.90
11840;DHT22;5979;50.800;4.904;2022-10-31T08:35:58;13.50;99.90
11840;DHT22;5979;50.800;4.904;2022-10-31T08:38:23;13.50;99.90
11840;DHT22;5979;50.800;4.904;2022-10-31T08:40:49;13.50;99.90
11840;DHT22;5979;50.800;4.904;2022-10-31T08:43:16;13.50;99.90
11840;DHT22;5979;50.800;4.904;2022-10-31T08:45:43;13.50;99.90
11840;DHT22;5979;50.800;4.904;2022-10-31T08:48:12;13.50;99.90
11840;DHT22;5979;50.800;4.904;2022-10-31T08:50:38;13.60;99.90
11840;DHT22;5979;50.800;4.904;2022-10-31T08:53:07;13.70;99.90
11840;DHT22;5979;50.800;4.904;2022-10-31T08:55:34;13.90;99.90
11840;DHT22;5979;50.800;4.904;2022-10-31T08:58:01;14.00;99.90
11840;DHT22;5979;50.800;4.904;2022-10-31T09:00:26;14.10;99.90
11840;DHT22;5979;50.800;4.904;2022-10-31T09:03:00;14.10;99.90
11840;DHT22;5979;50.800;4.904;2022-10-31T09:05:26;14.20;99.90
11840;DHT22;5979;50.800;4.904;2022-10-31T09:07:55;14.30;99.90
11840;DHT22;5979;50.800;4.904;2022-10-31T09:10:21;14.30;99.90
11840;DHT22;5979;50.800;4.904;2022-10-31T09:12:47;14.40;99.90
11840;DHT22;5979;50.800;4.904;2022-10-31T09:15:13;14.40;99.90
11840;DHT22;5979;50.800;4.904;2022-10-31T09:17:38;14.50;99.90
11840;DHT22;5979;50.800;4.904;2022-10-31T09:20:04;14.60;99.90
11840;DHT22;5979;50.800;4.904;2022-10-31T09:22:30;14.60;99.90
11840;DHT22;5979;50.800;4.904;2022-10-31T09:24:55;14.70;99.90
11840;DHT22;5979;50.800;4.904;2022-10-31T09:27:21;14.70;99.90
11840;DHT22;5979;50.800;4.904;2022-10-31T09:29:47;14.80;99.90
11840;DHT22;5979;50.800;4.904;2022-10-31T09:32:12;14.80;99.90
11840;DHT22;5979;50.800;4.904;2022-10-31T09:34:38;14.90;99.90
11840;DHT22;5979;50.800;4.904;2022-10-31T09:37:03;14.90;99.90
11840;DHT22;5979;50.800;4.904;2022-10-31T09:39:29;14.90;99.90
11840;DHT22;5979;50.800;4.904;2022-10-31T09:42:11;14.90;99.90
11840;DHT22;5979;50.800;4.904;2022-10-31T09:45:31;14.80;99.90
11840;DHT22;5979;50.800;4.904;2022-10-31T09:55:53;14.80;99.90
11840;DHT22;5979;50.800;4.904;2022-10-31T09:58:25;14.70;99.90
11840;DHT22;5979;50.800;4.904;2022-10-31T10:00:53;14.70;99.90
11840;DHT22;5979;50.800;4.904;2022-10-31T10:06:04;14.80;99.90
11840;DHT22;5979;50.800;4.904;2022-10-31T10:08:33;14.80;99.90
11840;DHT22;5979;50.800;4.904;2022-10-31T10:21:22;15.20;99.90
11840;DHT22;5979;50.800;4.904;2022-10-31T10:26:35;15.30;99.90
11840;DHT22;5979;50.800;4.904;2022-10-31T10:29:06;15.40;99.90
11840;DHT22;5979;50.800;4.904;2022-10-31T10:31:40;15.50;99.90
11840;DHT22;5979;50.800;4.904;2022-10-31T10:36:44;15.70;99.90
11840;DHT22;5979;50.800;4.904;2022-10-31T10:39:18;15.80;99.90
11840;DHT22;5979;50.800;4.904;2022-10-31T10:41:48;15.80;99.90
11840;DHT22;5979;50.800;4.904;2022-10-31T10:44:36;15.80;99.90
11840;DHT22;5979;50.800;4.904;2022-10-31T10:47:21;15.70;99.90
11840;DHT22;5979;50.800;4.904;2022-10-31T10:50:18;15.80;99.90
11840;DHT22;5979;50.800;4.904;2022-10-31T10:58:03;15.90;99.90
11840;DHT22;5979;50.800;4.904;2022-10-31T11:02:55;16.10;99.90
11840;DHT22;5979;50.800;4.904;2022-10-31T11:05:25;16.20;99.90
11840;DHT22;5979;50.800;4.904;2022-10-31T11:07:53;16.30;99.90
11840;DHT22;5979;50.800;4.904;2022-10-31T11:10:19;16.30;99.90
11840;DHT22;5979;50.800;4.904;2022-10-31T11:13:19;16.40;99.90
11840;DHT22;5979;50.800;4.904;2022-10-31T11:16:10;16.50;99.90
11840;DHT22;5979;50.800;4.904;2022-10-31T11:18:41;16.50;99.90
11840;DHT22;5979;50.800;4.904;2022-10-31T11:21:26;16.60;99.90
11840;DHT22;5979;50.800;4.904;2022-10-31T11:26:34;16.70;99.90
11840;DHT22;5979;50.800;4.904;2022-10-31T11:29:01;16.70;99.90
11840;DHT22;5979;50.800;4.904;2022-10-31T11:31:29;16.80;99.90
11840;DHT22;5979;50.800;4.904;2022-10-31T11:34:00;17.00;99.90
11840;DHT22;5979;50.800;4.904;2022-10-31T11:36:29;17.10;99.90
11840;DHT22;5979;50.800;4.904;2022-10-31T11:38:56;17.20;99.90
11840;DHT22;5979;50.800;4.904;2022-10-31T11:41:29;17.30;99.90
11840;DHT22;5979;50.800;4.904;2022-10-31T11:44:04;17.30;99.90
11840;DHT22;5979;50.800;4.904;2022-10-31T11:46:34;17.40;99.90
11840;DHT22;5979;50.800;4.904;2022-10-31T11:49:00;17.50;99.90
11840;DHT22;5979;50.800;4.904;2022-10-31T11:51:32;17.60;99.90
11840;DHT22;5979;50.800;4.904;2022-10-31T11:53:59;17.70;99.90
11840;DHT22;5979;50.800;4.904;2022-10-31T11:56:28;17.80;99.90
11840;DHT22;5979;50.800;4.904;2022-10-31T11:59:04;17.80;99.90
11840;DHT22;5979;50.800;4.904;2022-10-31T12:01:32;17.90;99.90
11840;DHT22;5979;50.800;4.904;2022-10-31T12:04:09;18.00;99.90
11840;DHT22;5979;50.800;4.904;2022-10-31T12:06:39;18.00;99.90
11840;DHT22;5979;50.800;4.904;2022-10-31T12:09:24;18.00;99.90
11840;DHT22;5979;50.800;4.904;2022-10-31T12:12:31;18.00;99.90
11840;DHT22;5979;50.800;4.904;2022-10-31T12:17:35;18.10;99.90
11840;DHT22;5979;50.800;4.904;2022-10-31T12:34:36;17.90;99.90
11840;DHT22;5979;50.800;4.904;2022-10-31T12:37:34;17.80;99.90
11840;DHT22;5979;50.800;4.904;2022-10-31T12:40:53;17.70;99.90
11840;DHT22;5979;50.800;4.904;2022-10-31T12:45:55;17.60;99.90
11840;DHT22;5979;50.800;4.904;2022-10-31T12:48:37;17.50;99.90
11840;DHT22;5979;50.800;4.904;2022-10-31T12:59:54;17.30;99.90
11840;DHT22;5979;50.800;4.904;2022-10-31T13:02:43;17.30;99.90
11840;DHT22;5979;50.800;4.904;2022-10-31T13:05:16;17.40;99.90
11840;DHT22;5979;50.800;4.904;2022-10-31T13:08:09;17.40;99.90
11840;DHT22;5979;50.800;4.904;2022-10-31T13:13:18;17.50;99.90
11840;DHT22;5979;50.800;4.904;2022-10-31T13:15:56;17.60;99.90
11840;DHT22;5979;50.800;4.904;2022-10-31T13:18:33;17.60;99.90
11840;DHT22;5979;50.800;4.904;2022-10-31T13:21:07;17.70;99.90
11840;DHT22;5979;50.800;4.904;2022-10-31T13:23:35;17.80;99.90
11840;DHT22;5979;50.800;4.904;2022-10-31T13:26:15;17.80;99.90
11840;DHT22;5979;50.800;4.904;2022-10-31T13:29:15;17.90;99.90
11840;DHT22;5979;50.800;4.904;2022-10-31T13:31:43;17.90;99.90
11840;DHT22;5979;50.800;4.904;2022-10-31T13:39:59;17.80;99.90
11840;DHT22;5979;50.800;4.904;2022-10-31T13:45:51;18.00;99.90
11840;DHT22;5979;50.800;4.904;2022-10-31T13:48:18;18.00;99.90
11840;DHT22;5979;50.800;4.904;2022-10-31T13:51:08;18.00;99.90
11840;DHT22;5979;50.800;4.904;2022-10-31T13:53:38;18.10;99.90
11840;DHT22;5979;50.800;4.904;2022-10-31T13:58:33;18.10;99.90
11840;DHT22;5979;50.800;4.904;2022-10-31T14:03:37;18.10;99.90
11840;DHT22;5979;50.800;4.904;2022-10-31T14:06:04;18.10;99.90
11840;DHT22;5979;50.800;4.904;2022-10-31T14:08:34;18.10;99.90
11840;DHT22;5979;50.800;4.904;2022-10-31T14:11:00;18.00;99.90
11840;DHT22;5979;50.800;4.904;2022-10-31T14:13:37;18.00;99.90
11840;DHT22;5979;50.800;4.904;2022-10-31T14:16:22;18.00;99.90
11840;DHT22;5979;50.800;4.904;2022-10-31T14:18:56;18.00;99.90
11840;DHT22;5979;50.800;4.904;2022-10-31T14:23:49;18.00;99.90
11840;DHT22;5979;50.800;4.904;2022-10-31T14:28:58;18.00;99.90
11840;DHT22;5979;50.800;4.904;2022-10-31T14:33:53;18.20;99.90
11840;DHT22;5979;50.800;4.904;2022-10-31T14:36:28;18.20;99.90
11840;DHT22;5979;50.800;4.904;2022-10-31T14:39:05;18.20;99.90
11840;DHT22;5979;50.800;4.904;2022-10-31T14:41:44;18.30;99.90
11840;DHT22;5979;50.800;4.904;2022-10-31T14:45:15;18.30;99.90
11840;DHT22;5979;50.800;4.904;2022-10-31T14:49:46;18.20;99.90
11840;DHT22;5979;50.800;4.904;2022-10-31T14:52:17;18.10;99.90
11840;DHT22;5979;50.800;4.904;2022-10-31T14:54:54;18.10;99.90
11840;DHT22;5979;50.800;4.904;2022-10-31T14:57:34;18.10;99.90
11840;DHT22;5979;50.800;4.904;2022-10-31T15:00:05;18.10;99.90
11840;DHT22;5979;50.800;4.904;2022-10-31T15:02:37;18.10;99.90
11840;DHT22;5979;50.800;4.904;2022-10-31T15:05:09;18.10;99.90
11840;DHT22;5979;50.800;4.904;2022-10-31T15:07:35;18.10;99.90
11840;DHT22;5979;50.800;4.904;2022-10-31T15:10:06;18.10;99.90
11840;DHT22;5979;50.800;4.904;2022-10-31T15:12:34;18.10;99.90
11840;DHT22;5979;50.800;4.904;2022-10-31T15:15:21;18.10;99.90
11840;DHT22;5979;50.800;4.904;2022-10-31T15:17:57;18.10;99.90
11840;DHT22;5979;50.800;4.904;2022-10-31T15:20:26;18.20;99.90
11840;DHT22;5979;50.800;4.904;2022-10-31T15:22:54;18.10;99.90
11840;DHT22;5979;50.800;4.904;2022-10-31T15:25:23;18.10;99.90
11840;DHT22;5979;50.800;4.904;2022-10-31T15:27:50;18.00;99.90
11840;DHT22;5979;50.800;4.904;2022-10-31T15:30:22;17.90;99.90
11840;DHT22;5979;50.800;4.904;2022-10-31T15:32:48;17.90;99.90
11840;DHT22;5979;50.800;4.904;2022-10-31T15:35:26;17.80;99.90
11840;DHT22;5979;50.800;4.904;2022-10-31T15:37:52;17.80;99.90
11840;DHT22;5979;50.800;4.904;2022-10-31T15:40:21;17.70;99.90
11840;DHT22;5979;50.800;4.904;2022-10-31T15:42:57;17.70;99.90
11840;DHT22;5979;50.800;4.904;2022-10-31T15:45:28;17.60;99.90
11840;DHT22;5979;50.800;4.904;2022-10-31T15:47:59;17.50;99.90
11840;DHT22;5979;50.800;4.904;2022-10-31T15:50:35;17.50;99.90
11840;DHT22;5979;50.800;4.904;2022-10-31T15:53:01;17.40;99.90
11840;DHT22;5979;50.800;4.904;2022-10-31T15:55:30;17.40;99.90
11840;DHT22;5979;50.800;4.904;2022-10-31T15:58:14;17.30;99.90
11840;DHT22;5979;50.800;4.904;2022-10-31T16:00:40;17.30;99.90
11840;DHT22;5979;50.800;4.904;2022-10-31T16:05:44;17.20;99.90
11840;DHT22;5979;50.800;4.904;2022-10-31T16:11:00;17.20;99.90
11840;DHT22;5979;50.800;4.904;2022-10-31T16:13:30;17.10;99.90
11840;DHT22;5979;50.800;4.904;2022-10-31T16:16:16;17.00;99.90
11840;DHT22;5979;50.800;4.904;2022-10-31T16:18:43;17.00;99.90
11840;DHT22;5979;50.800;4.904;2022-10-31T16:21:10;16.90;99.90
11840;DHT22;5979;50.800;4.904;2022-10-31T16:23:37;16.90;99.90
11840;DHT22;5979;50.800;4.904;2022-10-31T16:26:07;16.80;99.90
11840;DHT22;5979;50.800;4.904;2022-10-31T16:28:33;16.70;99.90
11840;DHT22;5979;50.800;4.904;2022-10-31T16:31:00;16.70;99.90
11840;DHT22;5979;50.800;4.904;2022-10-31T16:38:57;16.40;99.90
11840;DHT22;5979;50.800;4.904;2022-10-31T16:41:24;16.40;99.90
11840;DHT22;5979;50.800;4.904;2022-10-31T16:43:50;16.40;99.90
11840;DHT22;5979;50.800;4.904;2022-10-31T16:46:26;16.40;99.90
11840;DHT22;5979;50.800;4.904;2022-10-31T16:48:53;16.40;99.90
11840;DHT22;5979;50.800;4.904;2022-10-31T16:51:18;16.40;99.90
11840;DHT22;5979;50.800;4.904;2022-10-31T16:53:44;16.40;99.90
11840;DHT22;5979;50.800;4.904;2022-10-31T16:56:17;16.40;99.90
11840;DHT22;5979;50.800;4.904;2022-10-31T16:58:43;16.40;99.90
11840;DHT22;5979;50.800;4.904;2022-10-31T17:01:09;16.30;99.90
11840;DHT22;5979;50.800;4.904;2022-10-31T17:03:36;16.30;99.90
11840;DHT22;5979;50.800;4.904;2022-10-31T17:06:02;16.30;99.90
11840;DHT22;5979;50.800;4.904;2022-10-31T17:08:28;16.20;99.90
11840;DHT22;5979;50.800;4.904;2022-10-31T17:10:56;16.10;99.90
11840;DHT22;5979;50.800;4.904;2022-10-31T17:13:28;16.00;99.90
11840;DHT22;5979;50.800;4.904;2022-10-31T17:15:57;16.00;99.90
11840;DHT22;5979;50.800;4.904;2022-10-31T17:18:23;15.80;99.90
11840;DHT22;5979;50.800;4.904;2022-10-31T17:20:49;15.80;99.90
11840;DHT22;5979;50.800;4.904;2022-10-31T17:23:16;15.70;99.90
11840;DHT22;5979;50.800;4.904;2022-10-31T17:25:42;15.70;99.90
11840;DHT22;5979;50.800;4.904;2022-10-31T17:28:11;15.70;99.90
11840;DHT22;5979;50.800;4.904;2022-10-31T17:30:38;15.70;99.90
11840;DHT22;5979;50.800;4.904;2022-10-31T17:33:04;15.60;99.90
11840;DHT22;5979;50.800;4.904;2022-10-31T17:35:30;15.60;99.90
11840;DHT22;5979;50.800;4.904;2022-10-31T17:37:56;15.60;99.90
11840;DHT22;5979;50.800;4.904;2022-10-31T17:40:22;15.60;99.90
11840;DHT22;5979;50.800;4.904;2022-10-31T17:42:51;15.60;99.90
11840;DHT22;5979;50.800;4.904;2022-10-31T17:45:17;15.60;99.90
11840;DHT22;5979;50.800;4.904;2022-10-31T17:47:48;15.60;99.90
11840;DHT22;5979;50.800;4.904;2022-10-31T17:50:15;15.50;99.90
11840;DHT22;5979;50.800;4.904;2022-10-31T17:52:41;15.50;99.90
11840;DHT22;5979;50.800;4.904;2022-10-31T17:55:07;15.40;99.90
11840;DHT22;5979;50.800;4.904;2022-10-31T17:57:34;15.40;99.90
11840;DHT22;5979;50.800;4.904;2022-10-31T18:00:02;15.40;99.90
11840;DHT22;5979;50.800;4.904;2022-10-31T18:02:28;15.50;99.90
11840;DHT22;5979;50.800;4.904;2022-10-31T18:04:53;15.50;99.90
11840;DHT22;5979;50.800;4.904;2022-10-31T18:07:19;15.50;99.90
11840;DHT22;5979;50.800;4.904;2022-10-31T18:09:46;15.50;99.90
11840;DHT22;5979;50.800;4.904;2022-10-31T18:12:12;15.40;99.90
11840;DHT22;5979;50.800;4.904;2022-10-31T18:14:37;15.40;99.90
11840;DHT22;5979;50.800;4.904;2022-10-31T18:17:03;15.40;99.90
11840;DHT22;5979;50.800;4.904;2022-10-31T18:19:29;15.40;99.90
11840;DHT22;5979;50.800;4.904;2022-10-31T18:21:54;15.30;99.90
11840;DHT22;5979;50.800;4.904;2022-10-31T18:24:20;15.30;99.90
11840;DHT22;5979;50.800;4.904;2022-10-31T18:26:46;15.30;99.90
11840;DHT22;5979;50.800;4.904;2022-10-31T18:29:13;15.20;99.90